Time;durP1;ratioP1;P1;durP2;ratioP2;P2;SDS_P1;SDS_P2;PMS_P1;PMS_P2;Temp;Humidity;BMP_temperature;BMP_pressure;BME280_temperature;BME280_humidity;BME280_pressure;Samples;Min_cycle;Max_cycle;Signal;HPM_P1;HPM_P2
2021/01/18 00:00:53;;;;;;;114.90;39.93;;;;;;;-9.01;75.33;99564.62;4048746;86;21544;-84
2021/01/18 00:06:54;;;;;;;122.43;40.80;;;;;;;-9.12;75.57;99549.03;4050043;86;21250;-83
2021/01/18 00:12:56;;;;;;;125.73;40.60;;;;;;;-9.09;75.89;99547.23;4052170;86;21165;-83
2021/01/18 00:18:58;;;;;;;127.23;44.23;;;;;;;-9.05;75.69;99551.55;4047691;86;21355;-83
2021/01/18 00:25:00;;;;;;;125.70;43.50;;;;;;;-8.97;75.83;99553.30;4045683;86;21520;-83
2021/01/18 00:31:04;;;;;;;127.63;44.80;;;;;;;-8.99;75.66;99554.08;4044448;86;21209;-82
2021/01/18 00:37:05;;;;;;;145.80;47.43;;;;;;;-8.93;75.85;99560.27;4101507;84;21226;-84
2021/01/18 00:43:07;;;;;;;126.77;41.93;;;;;;;-9.09;75.73;99556.52;4050738;85;21366;-84
2021/01/18 00:49:08;;;;;;;126.17;42.63;;;;;;;-9.21;75.44;99563.70;4048097;86;21145;-84
2021/01/18 00:55:12;;;;;;;129.10;42.20;;;;;;;-9.28;75.47;99571.47;4121957;84;21198;-84
2021/01/18 01:01:15;;;;;;;;;;;;;;;-9.33;75.75;99582.00;4087089;84;21694;-84
2021/01/18 01:07:18;;;;;;;108.20;35.13;;;;;;;-9.44;75.76;99592.88;4043365;86;20282;-83
2021/01/18 01:13:19;;;;;;;94.23;27.33;;;;;;;-9.49;75.73;99591.97;4116558;84;21200;-84
2021/01/18 01:19:21;;;;;;;118.80;40.53;;;;;;;-9.52;75.79;99592.44;4100797;85;21630;-84
2021/01/18 01:25:25;;;;;;;111.97;38.80;;;;;;;-9.64;75.83;99597.73;4095967;84;21229;-84
2021/01/18 01:31:26;;;;;;;77.07;24.47;;;;;;;-9.63;75.58;99585.30;4095178;85;21408;-84
2021/01/18 01:37:29;;;;;;;127.30;39.10;;;;;;;-9.66;75.86;99573.29;4076829;85;21220;-85
2021/01/18 01:43:30;;;;;;;124.20;39.13;;;;;;;-9.77;75.73;99576.75;4098619;84;21415;-84
2021/01/18 01:49:32;;;;;;;119.73;38.60;;;;;;;-9.88;75.65;99583.66;4087330;84;21196;-83
2021/01/18 01:55:34;;;;;;;101.80;33.53;;;;;;;-9.84;75.92;99592.77;4083815;84;21672;-84
2021/01/18 02:01:36;;;;;;;127.23;36.63;;;;;;;-9.87;75.84;99593.23;4082124;85;21193;-84
2021/01/18 02:07:37;;;;;;;127.67;41.33;;;;;;;-9.94;75.82;99597.00;4087690;84;21200;-84
2021/01/18 02:14:13;;;;;;;122.07;38.57;;;;;;;-9.89;76.19;99597.95;4076005;85;21725;-84
2021/01/18 02:21:11;;;;;;;109.10;32.73;;;;;;;-9.81;76.31;99598.94;4086773;84;21137;-84
2021/01/18 02:27:36;;;;;;;110.80;35.30;;;;;;;-9.76;75.83;99586.33;4097196;84;21459;-84
2021/01/18 02:34:20;;;;;;;110.65;35.17;;;;;;;-9.98;76.00;99587.41;4080455;85;21662;-84
2021/01/18 02:40:36;;;;;;;117.10;39.53;;;;;;;-9.89;76.38;99582.05;4077756;84;21253;-84
2021/01/18 02:46:38;;;;;;;119.00;38.03;;;;;;;-9.75;76.41;99580.52;4092691;84;21162;-84
2021/01/18 02:52:42;;;;;;;117.30;37.67;;;;;;;-9.77;76.41;99581.26;4137429;84;21225;-84
2021/01/18 02:58:45;;;;;;;127.80;37.57;;;;;;;-9.80;76.18;99574.05;4136872;83;21142;-84
2021/01/18 03:05:19;;;;;;;112.30;38.60;;;;;;;-9.83;76.30;99571.05;4156314;83;21650;-84
2021/01/18 03:11:28;;;;;;;115.73;38.27;;;;;;;-9.92;75.99;99564.48;4150653;84;21392;-85
2021/01/18 03:17:30;;;;;;;105.83;36.00;;;;;;;-9.93;76.12;99570.29;4148072;84;21194;-84
2021/01/18 03:23:32;;;;;;;104.50;34.33;;;;;;;-9.97;76.16;99561.20;4146503;84;21142;-84
2021/01/18 03:29:33;;;;;;;85.43;25.10;;;;;;;-10.06;76.40;99559.93;4153440;84;21196;-84
2021/01/18 03:35:35;;;;;;;93.73;30.30;;;;;;;-9.95;76.14;99569.73;4152268;84;21201;-84
2021/01/18 03:41:36;;;;;;;86.27;31.67;;;;;;;;;;4146360;84;21793;-84
2021/01/18 03:47:38;;;;;;;97.17;30.53;;;;;;;-10.01;76.47;99568.00;4118757;83;21779;-84
2021/01/18 03:53:39;;;;;;;89.50;29.83;;;;;;;-9.98;76.51;99562.25;4083514;85;21200;-84
2021/01/18 03:59:40;;;;;;;94.87;28.27;;;;;;;-9.92;76.20;99565.30;4081235;85;21620;-84
2021/01/18 04:05:42;;;;;;;85.97;26.60;;;;;;;-9.97;76.51;99558.55;4088678;83;21380;-85
2021/01/18 04:11:43;;;;;;;95.17;28.80;;;;;;;-9.92;76.45;99560.51;4070501;85;21146;-84
2021/01/18 04:17:55;;;;;;;82.07;28.33;;;;;;;-9.94;76.49;99558.09;4074371;85;21181;-84
2021/01/18 04:23:56;;;;;;;88.17;28.23;;;;;;;-9.89;76.44;99550.78;4085617;85;21130;-84
2021/01/18 04:29:58;;;;;;;86.73;29.00;;;;;;;-9.79;76.43;99541.21;4094645;83;22266;-84
2021/01/18 04:35:59;;;;;;;88.27;29.73;;;;;;;-9.87;76.41;99540.27;4080811;83;21236;-85
2021/01/18 04:42:01;;;;;;;93.70;30.97;;;;;;;-9.83;76.37;99537.42;4078960;84;21212;-84
2021/01/18 04:48:04;;;;;;;88.60;30.77;;;;;;;-9.75;76.44;99538.13;4084868;84;22396;-84
2021/01/18 04:54:14;;;;;;;102.70;34.60;;;;;;;-9.76;76.41;99533.34;4071046;85;21228;-84
2021/01/18 05:00:17;;;;;;;103.93;33.77;;;;;;;-9.75;76.29;99531.50;4070696;85;21327;-84
2021/01/18 05:06:35;;;;;;;98.50;34.33;;;;;;;-9.75;76.18;99533.61;4066704;85;21518;-84
2021/01/18 05:12:41;;;;;;;80.27;23.83;;;;;;;-9.83;76.41;99530.80;4064376;85;21212;-84
2021/01/18 05:18:42;;;;;;;100.65;34.55;;;;;;;-9.88;76.40;99540.48;4071067;85;21224;-84
2021/01/18 05:24:44;;;;;;;119.90;34.83;;;;;;;-9.91;76.54;99541.73;4027484;85;21122;-84
2021/01/18 05:30:46;;;;;;;107.37;35.40;;;;;;;-9.84;76.62;99549.58;4035909;85;21635;-85
2021/01/18 05:36:49;;;;;;;100.53;28.80;;;;;;;-9.74;76.88;99556.95;4031319;85;21192;-84
2021/01/18 05:42:52;;;;;;;113.03;35.93;;;;;;;-9.73;76.41;99559.37;4036002;87;21219;-85
2021/01/18 05:48:54;;;;;;;104.87;31.70;;;;;;;-9.81;76.50;99559.20;4055260;85;21527;-85
2021/01/18 05:55:30;;;;;;;106.67;34.57;;;;;;;-9.83;76.49;99559.13;4066484;86;21237;-85
2021/01/18 06:01:38;;;;;;;;;;;;;;;-9.80;76.60;99559.48;4073334;85;21197;-85
2021/01/18 06:07:39;;;;;;;102.93;30.77;;;;;;;-9.81;76.20;99553.91;4067530;84;20297;-85
2021/01/18 06:13:40;;;;;;;98.10;33.30;;;;;;;;;;4066839;86;21229;-86
2021/01/18 06:19:42;;;;;;;92.87;31.60;;;;;;;-10.01;76.38;99562.70;4064325;85;21232;-85
2021/01/18 06:25:48;;;;;;;101.67;31.67;;;;;;;-9.97;76.28;99560.38;4062292;86;21193;-85
2021/01/18 06:31:49;;;;;;;101.77;31.30;;;;;;;-9.96;76.55;99560.16;4063722;85;21226;-85
2021/01/18 06:38:00;;;;;;;92.07;32.63;;;;;;;-9.96;76.62;99559.37;4064390;86;21237;-85
2021/01/18 06:44:03;;;;;;;90.93;33.77;;;;;;;-9.88;76.59;99554.52;4064548;85;21249;-86
2021/01/18 06:50:06;;;;;;;103.27;36.73;;;;;;;-9.85;76.50;99563.87;4064843;85;21694;-86
2021/01/18 06:56:44;;;;;;;116.60;40.17;;;;;;;-9.99;75.85;99561.94;4060320;85;21229;-85
2021/01/18 07:02:58;;;;;;;116.10;41.77;;;;;;;-10.30;76.43;99572.86;4057752;85;21229;-85
2021/01/18 07:09:11;;;;;;;122.17;41.37;;;;;;;-10.37;76.25;99572.67;4056368;85;21212;-85
2021/01/18 07:15:13;;;;;;;109.47;35.67;;;;;;;-10.22;76.00;99567.75;4059281;86;21319;-86
2021/01/18 07:21:18;;;;;;;104.13;38.90;;;;;;;-10.49;75.57;99580.56;4057845;86;21243;-85
2021/01/18 07:27:24;;;;;;;131.18;40.35;;;;;;;-10.81;75.47;99578.38;4061747;85;21529;-85
2021/01/18 07:33:26;;;;;;;132.00;43.93;;;;;;;-10.76;76.05;99587.78;4060189;85;21182;-85
2021/01/18 07:39:38;;;;;;;153.20;47.57;;;;;;;-10.69;75.42;99596.42;4064475;84;21208;-85
2021/01/18 07:45:40;;;;;;;147.27;51.63;;;;;;;-10.56;75.62;99591.78;4059062;85;21201;-86
2021/01/18 07:51:44;;;;;;;142.57;47.40;;;;;;;-10.46;75.59;99604.47;4056156;85;21228;-86
2021/01/18 07:57:46;;;;;;;117.65;39.40;;;;;;;-10.12;75.99;99603.25;4040924;86;21312;-86
2021/01/18 08:03:48;;;;;;;135.40;45.60;;;;;;;-9.65;75.24;99600.09;4065865;85;21761;-86
2021/01/18 08:09:54;;;;;;;115.50;43.17;;;;;;;-9.40;75.84;99592.72;4059205;85;21521;-86
2021/01/18 08:15:58;;;;;;;107.97;37.83;;;;;;;-8.96;75.86;99599.22;4061442;85;21193;-86
2021/01/18 08:22:01;;;;;;;114.60;40.13;;;;;;;-8.43;75.34;99588.59;4056185;85;21634;-86
2021/01/18 08:28:03;;;;;;;108.37;39.00;;;;;;;-7.98;74.93;99590.36;4057531;85;21653;-86
2021/01/18 08:34:10;;;;;;;113.90;40.97;;;;;;;-7.51;74.67;99587.14;4059797;85;21223;-86
2021/01/18 08:40:15;;;;;;;124.67;43.40;;;;;;;-7.19;74.20;99588.14;4059842;85;21220;-86
2021/01/18 08:46:37;;;;;;;109.77;41.47;;;;;;;-6.66;74.27;99599.44;4100967;84;21238;-86
2021/01/18 08:58:57;;;;;;;106.70;38.47;;;;;;;-5.54;72.91;99609.52;4588033;76;22934;-87
2021/01/18 09:05:21;;;;;;;111.00;38.53;;;;;;;-5.07;72.52;99600.50;4490774;78;21113;-88
2021/01/18 09:11:23;;;;;;;121.17;43.47;;;;;;;-4.60;72.42;99602.33;4491226;78;21431;-88
2021/01/18 09:17:25;;;;;;;115.40;43.97;;;;;;;-4.09;72.16;99605.40;4482845;78;21125;-87
2021/01/18 09:23:27;;;;;;;118.33;45.90;;;;;;;-3.61;71.84;99600.35;4483040;78;21188;-87
2021/01/18 09:29:28;;;;;;;115.87;43.10;;;;;;;-3.21;71.63;99590.14;4485753;78;21136;-87
2021/01/18 09:35:35;;;;;;;105.27;41.23;;;;;;;-3.04;68.99;99582.60;4492549;78;21120;-88
2021/01/18 09:41:37;;;;;;;144.00;56.60;;;;;;;-3.22;69.47;99580.48;4493361;78;21461;-88
2021/01/18 09:47:39;;;;;;;158.90;66.07;;;;;;;-2.56;69.22;99573.02;4501926;77;21136;-88
2021/01/18 09:53:41;;;;;;;180.10;69.57;;;;;;;-2.44;69.44;99564.92;4493034;78;21892;-87
2021/01/18 09:59:45;;;;;;;179.80;70.57;;;;;;;-2.11;68.48;99564.19;4466483;78;21597;-88
2021/01/18 10:05:48;;;;;;;152.93;61.97;;;;;;;-2.04;66.39;99553.95;4488735;78;21199;-88
2021/01/18 10:11:50;;;;;;;152.67;61.23;;;;;;;-2.21;65.73;99542.00;4489813;78;21651;-89
2021/01/18 10:17:54;;;;;;;157.13;62.50;;;;;;;-2.33;65.98;99542.86;4492592;78;21155;-88
2021/01/18 10:23:55;;;;;;;135.63;54.77;;;;;;;-3.05;63.95;99548.84;4491533;78;21117;-88
2021/01/18 10:30:16;;;;;;;112.27;46.13;;;;;;;-2.93;64.98;99542.66;4490084;78;21169;-86
2021/01/18 10:42:54;;;;;;;71.80;30.13;;;;;;;-2.40;62.24;99524.95;4524098;77;23504;-87
2021/01/18 10:48:57;;;;;;;68.27;27.57;;;;;;;-2.54;64.47;99533.35;4478404;78;21165;-87
2021/01/18 10:55:04;;;;;;;74.20;29.63;;;;;;;-2.19;64.48;99532.59;4483262;78;21207;-87
2021/01/18 11:01:13;;;;;;;73.97;30.03;;;;;;;-2.61;62.97;99532.84;4477915;78;21141;-86
2021/01/18 11:07:14;;;;;;;69.90;29.70;;;;;;;-3.02;62.23;99528.20;4486109;78;21288;-87
2021/01/18 11:13:19;;;;;;;72.10;28.40;;;;;;;-3.49;62.69;99525.12;4483251;78;21729;-86
2021/01/18 11:19:23;;;;;;;77.83;31.50;;;;;;;-3.91;62.26;99521.95;4491307;78;21694;-86
2021/01/18 11:25:26;;;;;;;82.30;34.23;;;;;;;-4.13;63.20;99521.42;4491914;78;21117;-86
2021/01/18 11:31:27;;;;;;;84.17;32.80;;;;;;;-4.39;62.42;99511.26;4492596;78;21184;-86
2021/01/18 11:37:29;;;;;;;85.27;33.37;;;;;;;-4.54;62.81;99509.88;4488210;78;22533;-86
2021/01/18 11:43:34;;;;;;;91.97;36.17;;;;;;;-4.47;63.54;99501.09;4486395;78;21307;-85
2021/01/18 11:49:36;;;;;;;83.17;34.93;;;;;;;-4.48;63.69;99500.02;4483511;78;21429;-85
2021/01/18 11:55:38;;;;;;;99.30;39.03;;;;;;;-4.55;64.03;99495.45;4493804;78;21198;-85
2021/01/18 12:01:46;;;;;;;108.80;41.27;;;;;;;-4.44;63.66;99485.05;4482786;78;21593;-86
2021/01/18 12:07:48;;;;;;;114.37;40.73;;;;;;;-4.72;63.13;99482.34;4482538;78;21662;-86
2021/01/18 12:13:50;;;;;;;96.73;38.27;;;;;;;-4.90;63.80;99473.47;4490760;78;21294;-86
2021/01/18 12:19:52;;;;;;;107.40;38.40;;;;;;;-5.22;63.27;99472.84;4482594;78;21143;-86
2021/01/18 12:25:53;;;;;;;98.63;38.13;;;;;;;-5.33;64.38;99466.66;4486486;78;22271;-86
2021/01/18 12:31:55;;;;;;;100.10;40.30;;;;;;;-5.51;63.98;99479.10;4483338;78;21645;-86
2021/01/18 12:37:56;;;;;;;113.27;42.03;;;;;;;-5.57;64.48;99472.14;4481495;78;21141;-86
2021/01/18 12:43:58;;;;;;;106.53;39.17;;;;;;;-5.60;64.12;99463.32;4465125;79;21132;-86
2021/01/18 12:49:59;;;;;;;110.27;40.30;;;;;;;-5.63;65.21;99465.17;4465424;79;21161;-86
2021/01/18 12:56:01;;;;;;;105.07;38.90;;;;;;;-5.49;65.20;99468.98;4464658;79;21306;-85
2021/01/18 13:02:09;;;;;;;108.90;39.87;;;;;;;-5.46;65.21;99467.65;4471483;78;21375;-87
2021/01/18 13:08:11;;;;;;;115.07;42.93;;;;;;;-5.33;65.17;99456.52;4475158;78;21267;-86
2021/01/18 13:14:14;;;;;;;108.93;42.30;;;;;;;-5.43;65.21;99452.45;4473085;79;21783;-85
2021/01/18 13:20:17;;;;;;;112.67;39.80;;;;;;;-5.59;65.30;99452.13;4466923;78;22556;-83
2021/01/18 13:26:19;;;;;;;116.87;44.37;;;;;;;-5.83;64.70;99450.95;4478879;78;21196;-86
2021/01/18 13:32:21;;;;;;;130.57;47.83;;;;;;;-5.99;65.33;99454.58;4468578;79;21141;-86
2021/01/18 13:38:22;;;;;;;144.13;51.73;;;;;;;-6.08;64.91;99442.27;4466964;78;21140;-85
2021/01/18 13:44:24;;;;;;;134.30;48.33;;;;;;;-6.20;65.35;99439.52;4488933;78;21192;-87
2021/01/18 13:50:25;;;;;;;128.57;46.20;;;;;;;-6.34;65.12;99445.80;4496094;78;21164;-86
2021/01/18 13:56:27;;;;;;;134.13;48.87;;;;;;;-6.45;65.37;99448.09;4490904;78;21134;-84
2021/01/18 14:02:29;;;;;;;138.83;50.30;;;;;;;-6.49;65.81;99448.34;4497417;78;21705;-86
2021/01/18 14:08:31;;;;;;;141.07;51.50;;;;;;;-6.47;65.55;99444.36;4492250;78;21182;-85
2021/01/18 14:14:32;;;;;;;141.50;50.37;;;;;;;-6.51;65.99;99443.79;4493406;78;22250;-85
2021/01/18 14:20:34;;;;;;;146.20;49.93;;;;;;;-6.47;66.10;99446.23;4494446;78;21685;-86
2021/01/18 14:32:51;;;;;;;158.77;52.70;;;;;;;-6.41;65.92;99430.56;4393356;79;22987;-85
2021/01/18 14:38:53;;;;;;;142.53;51.53;;;;;;;-6.58;65.75;99427.23;4318705;80;21142;-86
2021/01/18 14:44:55;;;;;;;174.67;56.17;;;;;;;-6.71;66.16;99426.31;4333319;80;21154;-86
2021/01/18 14:50:56;;;;;;;162.73;55.00;;;;;;;-6.82;66.35;99433.92;4322614;80;21211;-87
2021/01/18 14:57:00;;;;;;;159.27;56.53;;;;;;;-6.88;66.15;99422.44;4337688;80;21148;-87
2021/01/18 15:03:01;;;;;;;168.57;57.93;;;;;;;-6.97;66.23;99432.46;4332188;80;21213;-87
2021/01/18 15:09:07;;;;;;;159.77;55.17;;;;;;;-7.05;66.43;99431.06;4339730;81;21179;-86
2021/01/18 15:15:11;;;;;;;165.70;55.63;;;;;;;-7.04;66.52;99426.52;4320092;80;21230;-85
2021/01/18 15:21:13;;;;;;;202.97;67.93;;;;;;;-7.29;66.29;99436.37;4332661;80;21180;-84
2021/01/18 15:30:42;;;;;;;189.57;64.07;;;;;;;-7.53;66.74;99439.55;4433858;78;22186;-87
2021/01/18 15:36:51;;;;;;;193.20;69.20;;;;;;;-7.62;66.96;99447.65;4388047;79;21180;-86
2021/01/18 15:42:53;;;;;;;197.33;67.83;;;;;;;-7.69;66.83;99452.36;4387801;79;21213;-85
2021/01/18 15:48:54;;;;;;;178.13;63.13;;;;;;;-7.92;66.93;99451.25;4386951;79;21170;-85
2021/01/18 15:54:57;;;;;;;196.10;68.63;;;;;;;-7.96;67.05;99452.25;4387910;79;21185;-86
2021/01/18 16:01:00;;;;;;;211.70;76.47;;;;;;;-8.10;66.90;99448.33;4392516;79;21184;-85
2021/01/18 16:07:01;;;;;;;196.30;72.30;;;;;;;-8.40;66.88;99450.55;4386648;79;21184;-85
2021/01/18 16:13:03;;;;;;;233.87;87.67;;;;;;;-8.74;67.00;99450.25;4392830;79;21173;-84
2021/01/18 16:19:04;;;;;;;256.03;92.17;;;;;;;-9.15;66.90;99435.98;4383543;79;21181;-87
2021/01/18 16:25:08;;;;;;;288.13;98.53;;;;;;;-9.53;67.33;99432.59;4390797;79;21194;-87
2021/01/18 16:31:17;;;;;;;282.00;97.70;;;;;;;-9.74;67.47;99432.43;4389882;79;21123;-86
2021/01/18 16:37:28;;;;;;;297.67;100.60;;;;;;;-9.91;67.77;99431.81;4389303;79;21265;-86
2021/01/18 16:43:30;;;;;;;267.53;89.67;;;;;;;-9.99;67.97;99431.38;4389052;79;21181;-87
2021/01/18 16:49:35;;;;;;;250.80;84.63;;;;;;;-9.87;68.58;99421.56;4385947;79;21193;-83
2021/01/18 16:55:37;;;;;;;251.25;86.15;;;;;;;-9.81;68.59;99413.50;4387396;79;21160;-86
2021/01/18 17:09:06;;;;;;;261.80;98.87;;;;;;;-9.77;68.83;99414.36;4371608;79;21157;-86
2021/01/18 17:15:08;;;;;;;273.50;99.43;;;;;;;-9.70;68.96;99412.36;4385796;79;21145;-86
2021/01/18 17:21:13;;;;;;;243.00;87.20;;;;;;;-9.70;69.34;99412.36;4390052;79;21219;-85
2021/01/18 17:27:14;;;;;;;257.73;89.17;;;;;;;-9.54;69.81;99418.26;4384457;79;21649;-85
2021/01/18 17:33:16;;;;;;;273.80;91.10;;;;;;;-9.38;70.06;99425.47;4385780;79;21188;-85
2021/01/18 17:39:19;;;;;;;287.17;99.73;;;;;;;-9.17;70.14;99412.35;4385135;79;21145;-86
2021/01/18 17:45:20;;;;;;;274.67;95.57;;;;;;;-9.01;70.11;99409.45;4380954;79;21150;-86
2021/01/18 17:51:22;;;;;;;278.17;99.33;;;;;;;-8.89;70.21;99407.01;4379601;79;21670;-86
2021/01/18 17:57:23;;;;;;;270.07;100.80;;;;;;;-8.94;69.85;99410.89;4384493;79;21623;-85
2021/01/18 18:04:13;;;;;;;296.33;103.00;;;;;;;-8.96;70.24;99414.84;4375674;79;21593;-85
2021/01/18 18:21:30;;;;;;;358.50;117.13;;;;;;;-8.89;70.29;99412.31;4414864;78;23382;-84
2021/01/18 18:27:32;;;;;;;354.95;114.40;;;;;;;-8.88;70.64;99403.30;4325555;80;21740;-84
2021/01/18 18:33:35;;;;;;;356.20;119.90;;;;;;;-8.77;70.66;99403.75;4248700;82;21188;-83
2021/01/18 18:39:36;;;;;;;371.07;122.43;;;;;;;-8.82;70.62;99394.41;4273549;81;21194;-84
2021/01/18 18:45:41;;;;;;;380.33;124.03;;;;;;;-8.88;70.79;99397.21;4276435;81;21204;-84
2021/01/18 18:51:49;;;;;;;367.73;122.20;;;;;;;-8.82;71.11;99401.05;4277865;81;21342;-84
2021/01/18 18:57:51;;;;;;;340.83;117.50;;;;;;;-8.75;70.79;99396.88;4276408;81;22071;-84
2021/01/18 19:03:53;;;;;;;333.63;119.43;;;;;;;-8.72;71.29;99401.19;4277888;81;21179;-87
2021/01/18 19:09:54;;;;;;;352.93;123.97;;;;;;;-8.74;71.27;99390.00;4247113;81;21572;-86
2021/01/18 19:15:57;;;;;;;361.03;128.33;;;;;;;-8.59;71.39;99402.20;4276793;81;21164;-85
2021/01/18 19:21:59;;;;;;;354.83;129.50;;;;;;;-8.53;71.40;99403.08;4276071;81;21335;-85
2021/01/18 19:28:00;;;;;;;331.63;126.10;;;;;;;-8.47;71.43;99400.81;4275971;81;21639;-86
2021/01/18 19:34:02;;;;;;;384.30;134.73;;;;;;;-8.41;71.41;99405.14;4270516;81;21215;-86
2021/01/18 19:40:07;;;;;;;396.47;136.40;;;;;;;-8.44;71.53;99405.09;4274980;81;21359;-86
2021/01/18 19:46:09;;;;;;;358.32;129.18;;;;;;;-8.46;71.67;99408.53;4280574;81;21214;-86
2021/01/18 19:52:15;;;;;;;371.10;131.43;;;;;;;-8.33;71.69;99405.52;4274905;81;21393;-85
2021/01/18 19:58:14;;;;;;;354.07;125.80;;;;;;;-8.26;71.99;99399.53;4282886;81;21179;-85
2021/01/18 20:04:16;;;;;;;399.57;141.03;;;;;;;-8.15;72.03;99400.44;4161760;81;10000291;-85
2021/01/18 20:10:17;;;;;;;393.67;140.73;;;;;;;-8.04;71.99;99394.73;4281805;81;21207;-85
2021/01/18 20:16:21;;;;;;;376.63;138.77;;;;;;;-7.90;72.12;99392.00;4273945;81;22121;-85
2021/01/18 20:22:22;;;;;;;366.43;128.73;;;;;;;-7.83;72.05;99393.97;4275056;81;21199;-84
2021/01/18 20:28:28;;;;;;;339.87;122.13;;;;;;;-7.88;72.01;99382.75;4276812;81;21205;-85
2021/01/18 20:34:33;;;;;;;;;;;;;;;-7.87;71.99;99390.17;4274217;81;21196;-85
2021/01/18 20:40:35;;;;;;;362.35;126.05;;;;;;;-7.98;72.05;99382.61;4325860;80;20485;-87
2021/01/18 20:46:39;;;;;;;348.17;128.07;;;;;;;-8.00;72.36;99383.91;4259269;82;21610;-87
2021/01/18 20:52:41;;;;;;;368.93;126.70;;;;;;;-8.00;72.27;99377.27;4269092;81;21379;-86
2021/01/18 20:58:43;;;;;;;358.90;123.13;;;;;;;-7.94;72.62;99370.45;4256487;81;21182;-86
2021/01/18 21:04:44;;;;;;;362.90;125.63;;;;;;;-7.87;72.40;99364.41;4269888;81;21190;-86
2021/01/18 21:10:46;;;;;;;355.17;127.87;;;;;;;-7.81;72.80;99366.63;4209330;82;21370;-87
2021/01/18 21:16:47;;;;;;;345.80;125.67;;;;;;;-7.78;72.49;99368.78;4194010;83;21221;-86
2021/01/18 21:22:49;;;;;;;360.50;122.60;;;;;;;-7.71;72.67;99366.22;4209311;83;21358;-87
2021/01/18 21:28:50;;;;;;;377.80;127.13;;;;;;;-7.52;72.94;99354.72;4213213;83;21189;-86
2021/01/18 21:34:52;;;;;;;409.20;140.57;;;;;;;-7.70;72.59;99346.55;4251870;82;21360;-87
2021/01/18 21:40:54;;;;;;;393.87;136.80;;;;;;;-7.85;72.94;99338.92;4284307;81;21624;-86
2021/01/18 21:46:55;;;;;;;441.23;152.43;;;;;;;-7.86;73.01;99341.31;4242043;82;21194;-87
2021/01/18 21:52:57;;;;;;;440.77;146.23;;;;;;;-7.93;73.41;99340.16;4274559;81;21337;-86
2021/01/18 21:58:59;;;;;;;402.70;142.30;;;;;;;-7.87;73.69;99325.88;4279053;81;21724;-86
2021/01/18 22:05:03;;;;;;;378.23;129.37;;;;;;;-7.78;73.75;99320.40;4265343;81;21144;-86
2021/01/18 22:11:04;;;;;;;374.33;128.97;;;;;;;-7.76;73.93;99323.63;4209787;82;22494;-86
2021/01/18 22:17:06;;;;;;;423.63;142.43;;;;;;;-7.79;73.95;99321.46;4204876;84;21178;-86
2021/01/18 22:23:07;;;;;;;390.87;138.30;;;;;;;-7.60;74.06;99309.45;4285151;82;21629;-87
2021/01/18 22:29:08;;;;;;;394.50;137.90;;;;;;;-7.48;74.19;99304.78;4277148;82;21195;-86
2021/01/18 22:35:10;;;;;;;408.63;137.17;;;;;;;-7.45;73.52;99298.95;4264522;82;21200;-86
2021/01/18 22:41:12;;;;;;;405.73;145.77;;;;;;;-7.53;74.21;99294.09;4283363;82;21168;-86
2021/01/18 22:47:13;;;;;;;404.23;141.63;;;;;;;-7.49;74.24;99295.73;4276836;82;21228;-87
2021/01/18 22:53:15;;;;;;;418.30;149.40;;;;;;;-7.30;74.09;99288.48;4265650;81;21181;-86
2021/01/18 22:59:16;;;;;;;438.57;146.07;;;;;;;-7.34;74.47;99274.06;4278511;82;21183;-86
2021/01/18 23:05:18;;;;;;;404.67;142.30;;;;;;;-7.26;74.40;99266.95;4281020;82;21621;-86
2021/01/18 23:11:23;;;;;;;400.13;143.37;;;;;;;-7.07;74.67;99273.50;4270570;82;21168;-87
2021/01/18 23:17:23;;;;;;;391.87;136.47;;;;;;;-7.04;74.91;99266.34;4273226;81;21152;-87
2021/01/18 23:23:25;;;;;;;406.70;140.70;;;;;;;-6.90;74.67;99270.17;4273050;82;21220;-86
2021/01/18 23:29:26;;;;;;;391.20;141.00;;;;;;;-6.92;74.97;99262.96;4266476;82;21188;-86
2021/01/18 23:35:29;;;;;;;395.30;140.93;;;;;;;-6.74;75.19;99252.44;4275700;82;21175;-87
2021/01/18 23:41:30;;;;;;;407.67;143.13;;;;;;;-6.56;75.17;99230.70;4322534;81;21588;-86
2021/01/18 23:47:32;;;;;;;396.93;137.27;;;;;;;-6.57;74.86;99231.25;4320025;81;21319;-86
2021/01/18 23:53:33;;;;;;;371.20;137.80;;;;;;;-6.75;75.15;99226.89;4327874;81;21161;-87
2021/01/18 23:59:35;;;;;;;369.63;135.07;;;;;;;-6.66;75.60;99228.00;4333533;80;21544;-86
